sensor_id;sensor_type;location;lat;lon;timestamp;P1;durP1;ratioP1;P2;durP2;ratioP2
47401;SDS011;33155;48.370;-3.750;2022-09-01T08:19:48;9.88;;;4.65;;
47401;SDS011;33155;48.370;-3.750;2022-09-01T08:22:15;4.68;;;2.95;;
47401;SDS011;33155;48.370;-3.750;2022-09-01T08:24:41;3.70;;;3.05;;
47401;SDS011;33155;48.370;-3.750;2022-09-01T08:27:06;3.83;;;3.20;;
47401;SDS011;33155;48.370;-3.750;2022-09-01T08:29:32;4.97;;;3.45;;
47401;SDS011;33155;48.370;-3.750;2022-09-01T08:31:58;3.25;;;2.72;;
47401;SDS011;33155;48.370;-3.750;2022-09-01T08:34:24;3.90;;;3.10;;
47401;SDS011;33155;48.370;-3.750;2022-09-01T08:36:50;4.00;;;3.15;;
47401;SDS011;33155;48.370;-3.750;2022-09-01T08:39:15;3.58;;;2.88;;
47401;SDS011;33155;48.370;-3.750;2022-09-01T08:42:03;3.47;;;2.50;;
47401;SDS011;33155;48.370;-3.750;2022-09-01T08:44:40;3.20;;;2.53;;
47401;SDS011;33155;48.370;-3.750;2022-09-01T08:47:11;3.65;;;2.90;;
47401;SDS011;33155;48.370;-3.750;2022-09-01T08:49:39;5.05;;;3.58;;
47401;SDS011;33155;48.370;-3.750;2022-09-01T08:55:18;3.78;;;3.10;;
47401;SDS011;33155;48.370;-3.750;2022-09-01T08:57:50;3.78;;;3.00;;
47401;SDS011;33155;48.370;-3.750;2022-09-01T09:00:17;4.38;;;3.28;;
47401;SDS011;33155;48.370;-3.750;2022-09-01T09:02:50;5.82;;;3.90;;
47401;SDS011;33155;48.370;-3.750;2022-09-01T09:05:42;6.88;;;4.38;;
47401;SDS011;33155;48.370;-3.750;2022-09-01T09:13:54;4.13;;;3.50;;
47401;SDS011;33155;48.370;-3.750;2022-09-01T09:16:24;6.97;;;5.85;;
47401;SDS011;33155;48.370;-3.750;2022-09-01T09:19:03;8.55;;;5.68;;
47401;SDS011;33155;48.370;-3.750;2022-09-01T09:21:34;8.25;;;6.45;;
47401;SDS011;33155;48.370;-3.750;2022-09-01T09:26:48;8.05;;;6.40;;
47401;SDS011;33155;48.370;-3.750;2022-09-01T09:29:17;6.72;;;6.03;;
47401;SDS011;33155;48.370;-3.750;2022-09-01T09:31:45;5.40;;;4.88;;
47401;SDS011;33155;48.370;-3.750;2022-09-01T09:34:35;5.78;;;4.32;;
47401;SDS011;33155;48.370;-3.750;2022-09-01T09:37:26;4.15;;;3.72;;
47401;SDS011;33155;48.370;-3.750;2022-09-01T09:42:40;4.18;;;3.67;;
47401;SDS011;33155;48.370;-3.750;2022-09-01T09:48:09;3.88;;;3.35;;
47401;SDS011;33155;48.370;-3.750;2022-09-01T09:50:52;3.65;;;3.28;;
47401;SDS011;33155;48.370;-3.750;2022-09-01T09:56:02;2.85;;;2.38;;
47401;SDS011;33155;48.370;-3.750;2022-09-01T09:58:46;6.40;;;4.87;;
47401;SDS011;33155;48.370;-3.750;2022-09-01T10:03:51;4.70;;;4.15;;
47401;SDS011;33155;48.370;-3.750;2022-09-01T10:06:29;7.20;;;3.75;;
47401;SDS011;33155;48.370;-3.750;2022-09-01T10:08:55;5.07;;;3.50;;
47401;SDS011;33155;48.370;-3.750;2022-09-01T10:11:26;5.10;;;3.60;;
47401;SDS011;33155;48.370;-3.750;2022-09-01T10:13:54;5.88;;;3.45;;
47401;SDS011;33155;48.370;-3.750;2022-09-01T10:16:30;5.22;;;4.72;;
47401;SDS011;33155;48.370;-3.750;2022-09-01T10:18:59;5.80;;;5.22;;
47401;SDS011;33155;48.370;-3.750;2022-09-01T10:21:27;7.43;;;5.80;;
47401;SDS011;33155;48.370;-3.750;2022-09-01T10:23:57;5.63;;;4.85;;
47401;SDS011;33155;48.370;-3.750;2022-09-01T10:26:24;4.95;;;4.32;;
47401;SDS011;33155;48.370;-3.750;2022-09-01T10:28:58;4.25;;;3.85;;
47401;SDS011;33155;48.370;-3.750;2022-09-01T10:31:38;4.60;;;4.00;;
47401;SDS011;33155;48.370;-3.750;2022-09-01T10:34:04;3.83;;;3.28;;
47401;SDS011;33155;48.370;-3.750;2022-09-01T10:36:30;4.40;;;3.90;;
47401;SDS011;33155;48.370;-3.750;2022-09-01T10:38:57;4.18;;;3.63;;
47401;SDS011;33155;48.370;-3.750;2022-09-01T10:44:08;6.03;;;3.80;;
47401;SDS011;33155;48.370;-3.750;2022-09-01T10:49:01;4.00;;;3.60;;
47401;SDS011;33155;48.370;-3.750;2022-09-01T10:53:55;4.40;;;4.00;;
47401;SDS011;33155;48.370;-3.750;2022-09-01T11:05:09;5.00;;;4.13;;
47401;SDS011;33155;48.370;-3.750;2022-09-01T11:09:44;5.47;;;4.50;;
47401;SDS011;33155;48.370;-3.750;2022-09-01T11:17:57;4.45;;;3.80;;
47401;SDS011;33155;48.370;-3.750;2022-09-01T11:20:27;4.82;;;3.78;;
47401;SDS011;33155;48.370;-3.750;2022-09-01T11:35:40;4.75;;;3.78;;
47401;SDS011;33155;48.370;-3.750;2022-09-01T11:38:07;4.00;;;3.55;;
47401;SDS011;33155;48.370;-3.750;2022-09-01T11:40:34;4.80;;;4.05;;
47401;SDS011;33155;48.370;-3.750;2022-09-01T11:43:06;3.80;;;3.50;;
47401;SDS011;33155;48.370;-3.750;2022-09-01T11:45:37;4.72;;;3.70;;
47401;SDS011;33155;48.370;-3.750;2022-09-01T11:48:14;4.68;;;3.67;;
47401;SDS011;33155;48.370;-3.750;2022-09-01T11:50:40;5.60;;;4.22;;
47401;SDS011;33155;48.370;-3.750;2022-09-01T11:53:07;5.20;;;4.10;;
47401;SDS011;33155;48.370;-3.750;2022-09-01T11:55:35;4.68;;;3.78;;
47401;SDS011;33155;48.370;-3.750;2022-09-01T11:58:04;4.55;;;3.72;;
47401;SDS011;33155;48.370;-3.750;2022-09-01T12:00:31;3.92;;;3.22;;
47401;SDS011;33155;48.370;-3.750;2022-09-01T12:03:02;4.15;;;3.53;;
47401;SDS011;33155;48.370;-3.750;2022-09-01T12:05:49;4.90;;;3.40;;
47401;SDS011;33155;48.370;-3.750;2022-09-01T12:08:37;4.18;;;3.30;;
47401;SDS011;33155;48.370;-3.750;2022-09-01T12:13:32;3.33;;;3.03;;
47401;SDS011;33155;48.370;-3.750;2022-09-01T12:16:04;4.05;;;3.28;;
47401;SDS011;33155;48.370;-3.750;2022-09-01T12:18:35;3.83;;;3.35;;
47401;SDS011;33155;48.370;-3.750;2022-09-01T12:21:15;4.47;;;3.55;;
47401;SDS011;33155;48.370;-3.750;2022-09-01T12:23:52;4.03;;;3.58;;
47401;SDS011;33155;48.370;-3.750;2022-09-01T12:26:27;3.97;;;3.50;;
47401;SDS011;33155;48.370;-3.750;2022-09-01T12:28:54;3.92;;;3.53;;
47401;SDS011;33155;48.370;-3.750;2022-09-01T13:05:16;2.53;;;2.20;;
47401;SDS011;33155;48.370;-3.750;2022-09-01T13:08:05;3.05;;;2.40;;
47401;SDS011;33155;48.370;-3.750;2022-09-01T13:10:34;3.28;;;2.38;;
47401;SDS011;33155;48.370;-3.750;2022-09-01T13:13:02;2.97;;;2.50;;
47401;SDS011;33155;48.370;-3.750;2022-09-01T13:15:28;3.03;;;2.20;;
47401;SDS011;33155;48.370;-3.750;2022-09-01T13:17:55;2.65;;;2.45;;
47401;SDS011;33155;48.370;-3.750;2022-09-01T13:20:21;2.95;;;2.38;;
47401;SDS011;33155;48.370;-3.750;2022-09-01T13:22:46;1.85;;;1.73;;
47401;SDS011;33155;48.370;-3.750;2022-09-01T13:25:13;2.20;;;2.00;;
47401;SDS011;33155;48.370;-3.750;2022-09-01T13:27:44;2.55;;;2.00;;
47401;SDS011;33155;48.370;-3.750;2022-09-01T13:30:12;2.25;;;1.70;;
47401;SDS011;33155;48.370;-3.750;2022-09-01T13:32:40;2.00;;;1.80;;
47401;SDS011;33155;48.370;-3.750;2022-09-01T13:35:07;3.65;;;2.13;;
47401;SDS011;33155;48.370;-3.750;2022-09-01T13:37:32;2.30;;;1.75;;
47401;SDS011;33155;48.370;-3.750;2022-09-01T13:39:58;1.77;;;1.27;;
47401;SDS011;33155;48.370;-3.750;2022-09-01T13:42:24;2.17;;;1.98;;
47401;SDS011;33155;48.370;-3.750;2022-09-01T13:44:49;1.98;;;1.70;;
47401;SDS011;33155;48.370;-3.750;2022-09-01T13:47:14;2.50;;;1.98;;
47401;SDS011;33155;48.370;-3.750;2022-09-01T13:49:40;1.98;;;1.70;;
47401;SDS011;33155;48.370;-3.750;2022-09-01T13:52:05;2.08;;;1.50;;
47401;SDS011;33155;48.370;-3.750;2022-09-01T13:54:31;1.95;;;1.33;;
47401;SDS011;33155;48.370;-3.750;2022-09-01T13:56:57;1.80;;;1.70;;
47401;SDS011;33155;48.370;-3.750;2022-09-01T13:59:23;2.17;;;1.63;;
47401;SDS011;33155;48.370;-3.750;2022-09-01T14:01:48;1.60;;;1.42;;
47401;SDS011;33155;48.370;-3.750;2022-09-01T14:04:14;1.67;;;1.58;;
47401;SDS011;33155;48.370;-3.750;2022-09-01T14:06:40;1.58;;;1.48;;
47401;SDS011;33155;48.370;-3.750;2022-09-01T14:09:12;1.75;;;1.60;;
47401;SDS011;33155;48.370;-3.750;2022-09-01T14:11:38;1.60;;;1.50;;
47401;SDS011;33155;48.370;-3.750;2022-09-01T14:14:04;1.30;;;1.20;;
47401;SDS011;33155;48.370;-3.750;2022-09-01T14:16:30;1.60;;;1.23;;
47401;SDS011;33155;48.370;-3.750;2022-09-01T14:18:56;1.35;;;1.25;;
47401;SDS011;33155;48.370;-3.750;2022-09-01T14:21:23;1.85;;;1.52;;
47401;SDS011;33155;48.370;-3.750;2022-09-01T14:23:50;1.30;;;1.20;;
47401;SDS011;33155;48.370;-3.750;2022-09-01T14:26:16;4.75;;;2.38;;
47401;SDS011;33155;48.370;-3.750;2022-09-01T14:28:42;1.70;;;1.60;;
47401;SDS011;33155;48.370;-3.750;2022-09-01T14:31:16;1.77;;;1.40;;
47401;SDS011;33155;48.370;-3.750;2022-09-01T14:33:43;1.30;;;1.20;;
47401;SDS011;33155;48.370;-3.750;2022-09-01T14:36:15;1.70;;;1.60;;
47401;SDS011;33155;48.370;-3.750;2022-09-01T14:38:42;1.50;;;1.25;;
47401;SDS011;33155;48.370;-3.750;2022-09-01T14:41:07;2.83;;;2.25;;
47401;SDS011;33155;48.370;-3.750;2022-09-01T14:43:33;1.52;;;1.33;;
47401;SDS011;33155;48.370;-3.750;2022-09-01T14:46:03;2.88;;;1.88;;
47401;SDS011;33155;48.370;-3.750;2022-09-01T14:48:35;2.08;;;1.52;;
47401;SDS011;33155;48.370;-3.750;2022-09-01T14:51:04;1.55;;;1.40;;
47401;SDS011;33155;48.370;-3.750;2022-09-01T14:53:30;2.65;;;1.52;;
47401;SDS011;33155;48.370;-3.750;2022-09-01T14:55:56;2.17;;;1.77;;
47401;SDS011;33155;48.370;-3.750;2022-09-01T14:58:23;3.85;;;2.35;;
47401;SDS011;33155;48.370;-3.750;2022-09-01T15:00:49;2.35;;;1.90;;
47401;SDS011;33155;48.370;-3.750;2022-09-01T15:03:14;2.20;;;1.70;;
47401;SDS011;33155;48.370;-3.750;2022-09-01T15:05:40;1.85;;;1.40;;
47401;SDS011;33155;48.370;-3.750;2022-09-01T15:08:06;2.50;;;1.83;;
47401;SDS011;33155;48.370;-3.750;2022-09-01T15:10:33;1.50;;;1.40;;
47401;SDS011;33155;48.370;-3.750;2022-09-01T15:13:00;1.67;;;1.35;;
47401;SDS011;33155;48.370;-3.750;2022-09-01T15:15:26;1.90;;;1.40;;
47401;SDS011;33155;48.370;-3.750;2022-09-01T15:17:53;1.92;;;1.42;;
47401;SDS011;33155;48.370;-3.750;2022-09-01T15:20:19;1.40;;;1.30;;
47401;SDS011;33155;48.370;-3.750;2022-09-01T15:23:05;1.67;;;1.42;;
47401;SDS011;33155;48.370;-3.750;2022-09-01T15:25:32;1.40;;;1.30;;
47401;SDS011;33155;48.370;-3.750;2022-09-01T15:27:57;1.90;;;1.08;;
47401;SDS011;33155;48.370;-3.750;2022-09-01T15:30:23;1.25;;;1.10;;
47401;SDS011;33155;48.370;-3.750;2022-09-01T15:32:49;0.90;;;0.82;;
47401;SDS011;33155;48.370;-3.750;2022-09-01T15:35:17;1.25;;;1.15;;
47401;SDS011;33155;48.370;-3.750;2022-09-01T15:37:44;1.52;;;0.80;;
47401;SDS011;33155;48.370;-3.750;2022-09-01T15:40:14;1.23;;;0.90;;
47401;SDS011;33155;48.370;-3.750;2022-09-01T15:42:40;1.00;;;0.90;;
47401;SDS011;33155;48.370;-3.750;2022-09-01T15:45:09;0.57;;;0.50;;
47401;SDS011;33155;48.370;-3.750;2022-09-01T15:47:38;0.90;;;0.63;;
47401;SDS011;33155;48.370;-3.750;2022-09-01T15:50:05;0.65;;;0.40;;
47401;SDS011;33155;48.370;-3.750;2022-09-01T15:52:33;0.50;;;0.50;;
47401;SDS011;33155;48.370;-3.750;2022-09-01T15:54:59;0.50;;;0.50;;
47401;SDS011;33155;48.370;-3.750;2022-09-01T15:57:26;0.50;;;0.50;;
47401;SDS011;33155;48.370;-3.750;2022-09-01T15:59:52;0.57;;;0.57;;
47401;SDS011;33155;48.370;-3.750;2022-09-01T16:02:17;0.40;;;0.40;;
47401;SDS011;33155;48.370;-3.750;2022-09-01T16:04:45;0.40;;;0.40;;
47401;SDS011;33155;48.370;-3.750;2022-09-01T16:07:11;0.40;;;0.32;;
47401;SDS011;33155;48.370;-3.750;2022-09-01T16:09:37;0.85;;;0.52;;
47401;SDS011;33155;48.370;-3.750;2022-09-01T16:12:03;0.47;;;0.45;;
47401;SDS011;33155;48.370;-3.750;2022-09-01T16:14:28;0.50;;;0.50;;
47401;SDS011;33155;48.370;-3.750;2022-09-01T16:22:27;0.57;;;0.30;;
47401;SDS011;33155;48.370;-3.750;2022-09-01T16:24:57;0.93;;;0.50;;
47401;SDS011;33155;48.370;-3.750;2022-09-01T16:27:30;0.43;;;0.30;;
47401;SDS011;33155;48.370;-3.750;2022-09-01T16:29:58;0.43;;;0.43;;
47401;SDS011;33155;48.370;-3.750;2022-09-01T16:32:27;0.43;;;0.43;;
47401;SDS011;33155;48.370;-3.750;2022-09-01T16:34:55;0.43;;;0.43;;
47401;SDS011;33155;48.370;-3.750;2022-09-01T17:04:46;0.60;;;0.40;;
47401;SDS011;33155;48.370;-3.750;2022-09-01T17:12:52;0.80;;;0.80;;
47401;SDS011;33155;48.370;-3.750;2022-09-01T17:18:16;0.73;;;0.70;;
47401;SDS011;33155;48.370;-3.750;2022-09-01T17:20:47;0.73;;;0.60;;
47401;SDS011;33155;48.370;-3.750;2022-09-01T17:23:21;0.93;;;0.70;;
47401;SDS011;33155;48.370;-3.750;2022-09-01T17:25:57;0.63;;;0.60;;
47401;SDS011;33155;48.370;-3.750;2022-09-01T17:28:29;3.58;;;0.70;;
47401;SDS011;33155;48.370;-3.750;2022-09-01T17:31:04;0.60;;;0.57;;
47401;SDS011;33155;48.370;-3.750;2022-09-01T17:37:36;1.02;;;0.90;;
47401;SDS011;33155;48.370;-3.750;2022-09-01T17:42:45;0.60;;;0.60;;
47401;SDS011;33155;48.370;-3.750;2022-09-01T17:45:32;1.05;;;0.88;;
47401;SDS011;33155;48.370;-3.750;2022-09-01T17:51:10;0.60;;;0.60;;
47401;SDS011;33155;48.370;-3.750;2022-09-01T17:53:42;0.60;;;0.60;;
47401;SDS011;33155;48.370;-3.750;2022-09-01T17:59:32;0.70;;;0.70;;
47401;SDS011;33155;48.370;-3.750;2022-09-01T18:02:19;1.33;;;0.70;;
47401;SDS011;33155;48.370;-3.750;2022-09-01T18:05:10;0.50;;;0.50;;
47401;SDS011;33155;48.370;-3.750;2022-09-01T18:12:58;0.70;;;0.70;;
47401;SDS011;33155;48.370;-3.750;2022-09-01T18:15:25;0.65;;;0.63;;
47401;SDS011;33155;48.370;-3.750;2022-09-01T18:20:40;0.60;;;0.55;;
47401;SDS011;33155;48.370;-3.750;2022-09-01T18:23:09;0.40;;;0.40;;
47401;SDS011;33155;48.370;-3.750;2022-09-01T18:25:40;0.52;;;0.52;;
47401;SDS011;33155;48.370;-3.750;2022-09-01T18:28:07;2.00;;;0.95;;
47401;SDS011;33155;48.370;-3.750;2022-09-01T18:33:55;0.73;;;0.73;;
47401;SDS011;33155;48.370;-3.750;2022-09-01T18:39:20;0.70;;;0.65;;
47401;SDS011;33155;48.370;-3.750;2022-09-01T18:42:02;0.65;;;0.60;;
47401;SDS011;33155;48.370;-3.750;2022-09-01T18:45:24;0.60;;;0.60;;
47401;SDS011;33155;48.370;-3.750;2022-09-01T18:50:42;0.70;;;0.70;;
47401;SDS011;33155;48.370;-3.750;2022-09-01T18:58:46;0.73;;;0.73;;
47401;SDS011;33155;48.370;-3.750;2022-09-01T19:01:21;0.80;;;0.80;;
47401;SDS011;33155;48.370;-3.750;2022-09-01T19:04:07;1.52;;;0.70;;
47401;SDS011;33155;48.370;-3.750;2022-09-01T19:09:41;1.05;;;0.95;;
47401;SDS011;33155;48.370;-3.750;2022-09-01T19:17:45;1.55;;;0.98;;
47401;SDS011;33155;48.370;-3.750;2022-09-01T19:20:30;0.88;;;0.88;;
47401;SDS011;33155;48.370;-3.750;2022-09-01T19:23:05;0.88;;;0.70;;
47401;SDS011;33155;48.370;-3.750;2022-09-01T19:25:35;0.80;;;0.80;;
47401;SDS011;33155;48.370;-3.750;2022-09-01T19:33:38;0.63;;;0.63;;
47401;SDS011;33155;48.370;-3.750;2022-09-01T19:36:06;1.08;;;0.82;;
47401;SDS011;33155;48.370;-3.750;2022-09-01T19:38:33;0.98;;;0.80;;
47401;SDS011;33155;48.370;-3.750;2022-09-01T19:41:44;0.85;;;0.70;;
47401;SDS011;33155;48.370;-3.750;2022-09-01T19:44:00;0.65;;;0.57;;
47401;SDS011;33155;48.370;-3.750;2022-09-01T19:46:35;0.73;;;0.73;;
47401;SDS011;33155;48.370;-3.750;2022-09-01T19:49:09;0.60;;;0.60;;
47401;SDS011;33155;48.370;-3.750;2022-09-01T19:51:47;0.52;;;0.52;;
47401;SDS011;33155;48.370;-3.750;2022-09-01T19:57:04;0.63;;;0.60;;
